Time;durP1;ratioP1;P1;durP2;ratioP2;P2;SDS_P1;SDS_P2;PMS_P1;PMS_P2;Temp;Humidity;BMP_temperature;BMP_pressure;BME280_temperature;BME280_humidity;BME280_pressure;Samples;Min_cycle;Max_cycle;Signal;HPM_P1;HPM_P2
2022/04/12 00:00:13;;;;;;;6.87;4.50;;;;;;;4.30;100.00;97823.80;1797551;79;20981;-71
2022/04/12 00:02:41;;;;;;;4.33;3.80;;;;;;;4.29;100.00;97832.34;1794768;79;20987;-73
2022/04/12 00:05:11;;;;;;;4.73;3.90;;;;;;;4.28;100.00;97840.03;1765801;80;21548;-71
2022/04/12 00:07:40;;;;;;;4.30;3.90;;;;;;;4.27;100.00;97861.65;1765920;81;21023;-71
2022/04/12 00:10:09;;;;;;;3.90;3.50;;;;;;;4.28;100.00;97882.02;1791305;79;21062;-71
2022/04/12 00:12:37;;;;;;;3.80;3.40;;;;;;;4.27;100.00;97887.88;1800697;79;21012;-71
2022/04/12 00:15:08;;;;;;;3.93;3.47;;;;;;;4.27;100.00;97879.04;1774346;80;21510;-70
2022/04/12 00:20:21;;;;;;;5.77;3.47;;;;;;;4.27;100.00;97822.34;1779860;80;21048;-72
2022/04/12 00:22:48;;;;;;;5.63;3.83;;;;;;;4.24;100.00;97775.88;1726885;81;21057;-71
2022/04/12 00:25:15;;;;;;;4.07;3.50;;;;;;;4.23;100.00;97782.75;1751242;80;21061;-71
2022/04/12 00:27:43;;;;;;;4.13;3.27;;;;;;;4.22;100.00;97807.86;1749325;81;21088;-71
2022/04/12 00:30:12;;;;;;;4.23;3.60;;;;;;;4.25;100.00;97820.84;1770507;81;21045;-71
2022/04/12 00:32:39;;;;;;;5.03;3.87;;;;;;;4.25;100.00;97820.84;1750232;80;21030;-71
2022/04/12 00:35:08;;;;;;;5.87;4.07;;;;;;;4.23;100.00;97813.52;1752415;80;21044;-71
2022/04/12 00:37:35;;;;;;;12.63;5.40;;;;;;;4.23;100.00;97800.14;1754398;80;21541;-71
2022/04/12 00:40:05;;;;;;;6.40;4.07;;;;;;;4.22;100.00;97793.16;1779156;80;21029;-71
2022/04/12 00:42:33;;;;;;;6.10;4.23;;;;;;;4.22;100.00;97783.79;1776891;80;21088;-72
2022/04/12 00:45:00;;;;;;;6.47;4.20;;;;;;;4.20;100.00;97778.62;1725062;81;21045;-72
2022/04/12 00:47:27;;;;;;;6.77;4.40;;;;;;;4.20;100.00;97793.33;1751741;80;21038;-71
2022/04/12 00:49:54;;;;;;;7.93;4.40;;;;;;;4.21;100.00;97801.66;1775931;80;20994;-71
2022/04/12 00:52:22;;;;;;;9.60;5.37;;;;;;;4.21;100.00;97815.03;1753724;80;20985;-71
2022/04/12 00:54:49;;;;;;;8.23;5.30;;;;;;;4.22;100.00;97824.73;1750618;80;21006;-70
2022/04/12 00:57:18;;;;;;;16.70;8.47;;;;;;;4.22;100.00;97829.27;1802044;79;21090;-72
2022/04/12 00:59:45;;;;;;;17.57;9.43;;;;;;;4.22;100.00;97823.91;1804552;78;21018;-71
2022/04/12 01:02:12;;;;;;;21.67;11.70;;;;;;;4.24;100.00;97801.81;1785348;79;21074;-73
2022/04/12 01:04:40;;;;;;;20.70;11.70;;;;;;;4.25;100.00;97815.50;1667064;85;21042;-72
2022/04/12 01:07:07;;;;;;;17.50;10.03;;;;;;;4.25;100.00;97814.16;1684512;84;21062;-72
2022/04/12 01:09:35;;;;;;;12.43;7.23;;;;;;;4.24;100.00;97811.18;1682665;85;21022;-71
2022/04/12 01:12:09;;;;;;;6.17;4.10;;;;;;;4.23;100.00;97810.33;1689476;85;21495;-71
2022/04/12 01:14:32;;;;;;;4.77;3.70;;;;;;;4.22;100.00;97807.34;1694132;84;21066;-72
2022/04/12 01:17:05;;;;;;;4.30;3.50;;;;;;;4.18;100.00;97814.91;1691627;84;21029;-71
2022/04/12 01:19:32;;;;;;;;;;;;;;;4.15;100.00;97807.25;1645473;85;21049;-71
2022/04/12 01:22:05;;;;;;;4.00;3.47;;;;;;;4.15;100.00;97801.91;1683392;85;20102;-72
2022/04/12 01:24:33;;;;;;;3.90;3.50;;;;;;;4.15;100.00;97812.60;1661158;85;21094;-71
2022/04/12 01:27:04;;;;;;;7.20;3.70;;;;;;;4.14;100.00;97817.64;1651991;85;21333;-72
2022/04/12 01:29:34;;;;;;;4.50;3.10;;;;;;;4.16;100.00;97818.77;1619904;86;21088;-72
2022/04/12 01:32:02;;;;;;;4.50;3.40;;;;;;;4.14;100.00;97813.63;1661401;85;21081;-72
2022/04/12 01:34:29;;;;;;;5.00;3.60;;;;;;;4.13;100.00;97823.17;1690520;84;21040;-72
2022/04/12 01:36:56;;;;;;;5.63;3.40;;;;;;;4.12;100.00;97825.52;1704257;83;21088;-71
2022/04/12 01:39:23;;;;;;;5.33;3.57;;;;;;;4.12;100.00;97808.13;1702419;83;21067;-71
2022/04/12 01:41:50;;;;;;;3.83;3.40;;;;;;;4.08;100.00;97804.99;1703991;84;21076;-72
2022/04/12 01:44:17;;;;;;;3.90;3.40;;;;;;;4.05;100.00;97813.37;1657641;84;21041;-72
2022/04/12 01:46:45;;;;;;;4.33;3.53;;;;;;;4.07;100.00;97817.20;1710612;84;21048;-72
2022/04/12 01:49:12;;;;;;;3.73;3.30;;;;;;;4.08;100.00;97819.70;1716793;83;21044;-72
2022/04/12 01:51:40;;;;;;;3.37;3.07;;;;;;;4.05;100.00;97822.73;1706464;83;21620;-73
2022/04/12 01:54:07;;;;;;;4.80;3.20;;;;;;;4.04;100.00;97829.12;1691603;84;21076;-73
2022/04/12 01:56:35;;;;;;;3.30;3.00;;;;;;;4.04;100.00;97817.08;1729462;82;21047;-72
2022/04/12 01:59:02;;;;;;;3.70;3.10;;;;;;;4.05;100.00;97810.70;1739175;82;21039;-72
2022/04/12 02:01:30;;;;;;;3.30;2.87;;;;;;;4.04;100.00;97802.86;1738966;82;21066;-72
2022/04/12 02:03:57;;;;;;;4.13;3.30;;;;;;;4.02;100.00;97804.89;1725164;82;21018;-72
2022/04/12 02:06:24;;;;;;;3.67;3.00;;;;;;;4.03;100.00;97800.70;1713799;84;21011;-72
2022/04/12 02:08:51;;;;;;;4.80;3.10;;;;;;;4.03;100.00;97800.70;1691810;83;21025;-71
2022/04/12 02:11:18;;;;;;;3.30;3.00;;;;;;;4.01;100.00;97787.20;1722873;83;21081;-71
2022/04/12 02:13:46;;;;;;;3.37;2.93;;;;;;;4.01;100.00;97793.38;1723646;83;21041;-72
2022/04/12 02:16:15;;;;;;;6.43;3.30;;;;;;;4.01;100.00;97784.02;1722244;83;21098;-72
2022/04/12 02:18:42;;;;;;;3.50;3.00;;;;;;;4.01;100.00;97783.20;1713844;84;21038;-72
2022/04/12 02:21:11;;;;;;;4.90;3.30;;;;;;;3.97;100.00;97788.91;1735668;81;21045;-72
2022/04/12 02:23:39;;;;;;;5.03;3.53;;;;;;;3.93;100.00;97788.95;1750410;82;21026;-72
2022/04/12 02:26:07;;;;;;;4.73;3.00;;;;;;;3.91;100.00;97792.81;1749776;82;21049;-72
2022/04/12 02:28:35;;;;;;;3.30;2.90;;;;;;;3.88;100.00;97791.34;1728373;82;21479;-72
2022/04/12 02:31:03;;;;;;;4.17;3.00;;;;;;;3.85;100.00;97790.37;1747900;82;21010;-71
2022/04/12 02:33:30;;;;;;;3.03;2.60;;;;;;;3.83;100.00;97780.38;1740270;82;20999;-71
2022/04/12 02:35:57;;;;;;;3.70;2.80;;;;;;;3.82;100.00;97781.89;1747352;82;21442;-72
2022/04/12 02:38:25;;;;;;;2.43;2.17;;;;;;;3.82;100.00;97790.73;1750866;82;21006;-70
2022/04/12 02:40:54;;;;;;;3.63;2.47;;;;;;;3.82;100.00;97798.75;1751391;81;21022;-72
2022/04/12 02:43:21;;;;;;;3.63;2.30;;;;;;;3.83;100.00;97817.80;1726550;81;21100;-71
2022/04/12 02:45:49;;;;;;;3.13;2.20;;;;;;;3.82;100.00;97828.67;1729822;82;21029;-72
2022/04/12 02:48:17;;;;;;;4.03;2.23;;;;;;;3.83;100.00;97807.11;1751353;81;21006;-72
2022/04/12 02:50:45;;;;;;;4.53;2.50;;;;;;;3.84;100.00;97787.36;1726682;82;21140;-72
2022/04/12 02:53:13;;;;;;;5.50;2.00;;;;;;;3.85;100.00;97773.51;1751134;81;21037;-71
2022/04/12 02:55:40;;;;;;;5.67;1.93;;;;;;;3.79;100.00;97779.91;1757207;80;21053;-72
2022/04/12 02:58:08;;;;;;;4.93;1.80;;;;;;;3.75;100.00;97795.14;1758947;80;21006;-72
2022/04/12 03:00:36;;;;;;;1.67;1.57;;;;;;;3.67;100.00;97808.61;1780785;80;21038;-71
2022/04/12 03:03:04;;;;;;;1.77;1.33;;;;;;;3.63;100.00;97830.00;1787615;80;20987;-72
2022/04/12 03:05:32;;;;;;;1.63;1.53;;;;;;;3.59;100.00;97824.19;1781439;80;21041;-71
2022/04/12 03:07:59;;;;;;;2.77;2.20;;;;;;;3.52;100.00;97810.72;1782474;80;21030;-72
2022/04/12 03:10:27;;;;;;;4.17;2.13;;;;;;;3.47;100.00;97807.78;1760676;80;21044;-72
2022/04/12 03:12:55;;;;;;;2.70;2.43;;;;;;;3.44;100.00;97809.98;1789207;80;21021;-72
2022/04/12 03:15:22;;;;;;;4.47;2.90;;;;;;;3.41;100.00;97821.84;1736478;80;21045;-72
2022/04/12 03:17:49;;;;;;;2.33;1.60;;;;;;;3.34;100.00;97822.23;1783741;80;21033;-72
2022/04/12 03:20:17;;;;;;;1.23;1.13;;;;;;;3.30;100.00;97826.29;1782526;80;21573;-72
2022/04/12 03:22:44;;;;;;;1.20;1.20;;;;;;;3.23;100.00;97814.14;1782954;80;21577;-72
2022/04/12 03:25:12;;;;;;;1.07;1.07;;;;;;;3.18;100.00;97820.02;1781579;80;21065;-71
2022/04/12 03:27:39;;;;;;;1.73;1.20;;;;;;;3.17;100.00;97821.52;1756894;80;21037;-72
2022/04/12 03:30:08;;;;;;;0.90;0.90;;;;;;;3.14;100.00;97827.23;1782403;80;21010;-72
2022/04/12 03:32:36;;;;;;;1.03;0.90;;;;;;;3.09;100.00;97840.29;1781494;80;21515;-72
2022/04/12 03:35:06;;;;;;;1.17;1.10;;;;;;;3.04;100.00;97836.80;1781116;80;21022;-73
2022/04/12 03:37:33;;;;;;;1.73;1.63;;;;;;;3.02;100.00;97842.31;1781271;80;21502;-72
2022/04/12 03:40:01;;;;;;;1.60;1.50;;;;;;;3.03;100.00;97841.32;1782821;80;21029;-72
2022/04/12 03:42:30;;;;;;;3.27;1.53;;;;;;;2.98;100.00;97840.20;1778472;80;21033;-71
2022/04/12 03:44:57;;;;;;;2.53;1.50;;;;;;;2.96;100.00;97843.04;1785192;80;21041;-71
2022/04/12 03:47:24;;;;;;;0.90;0.90;;;;;;;2.92;100.00;97847.56;1782588;80;20998;-72
2022/04/12 03:49:51;;;;;;;1.23;1.13;;;;;;;2.89;100.00;97843.93;1762147;80;21076;-72
2022/04/12 03:52:19;;;;;;;1.30;1.20;;;;;;;2.86;100.00;97837.09;1788349;80;21590;-72
2022/04/12 03:54:46;;;;;;;1.13;1.07;;;;;;;2.84;100.00;97840.44;1781365;80;21089;-71
2022/04/12 03:57:17;;;;;;;1.10;1.00;;;;;;;2.82;100.00;97828.59;1754264;82;21054;-71
2022/04/12 03:59:43;;;;;;;1.60;1.40;;;;;;;2.83;100.00;97830.75;1750593;81;21061;-71
2022/04/12 04:02:10;;;;;;;1.07;1.07;;;;;;;2.80;100.00;97826.61;1729453;82;21073;-71
2022/04/12 04:04:37;;;;;;;0.90;0.90;;;;;;;2.79;100.00;97823.61;1750455;81;21080;-71
2022/04/12 04:07:05;;;;;;;0.77;0.77;;;;;;;2.76;100.00;97823.13;1746735;81;21080;-71
2022/04/12 04:09:32;;;;;;;0.60;0.60;;;;;;;2.74;100.00;97819.30;1747467;81;21016;-71
2022/04/12 04:12:03;;;;;;;0.60;0.60;;;;;;;2.75;100.00;97817.48;1775764;81;21048;-71
2022/04/12 04:14:31;;;;;;;0.70;0.70;;;;;;;2.76;100.00;97827.98;1773404;80;20996;-71
2022/04/12 04:19:29;;;;;;;0.80;0.80;;;;;;;2.76;100.00;97841.33;1718122;83;21030;-71
2022/04/12 04:21:57;;;;;;;0.60;0.60;;;;;;;2.74;100.00;97836.64;1719989;83;21042;-72
2022/04/12 04:24:25;;;;;;;0.60;0.60;;;;;;;2.75;100.00;97845.50;1718178;83;21070;-71
2022/04/12 04:26:55;;;;;;;0.50;0.50;;;;;;;2.73;100.00;97840.34;1693554;83;21118;-71
2022/04/12 04:29:27;;;;;;;0.70;0.70;;;;;;;2.72;100.00;97834.66;1694701;83;21045;-70
2022/04/12 04:31:55;;;;;;;0.60;0.60;;;;;;;2.71;100.00;97831.68;1688452;83;21014;-72
2022/04/12 04:34:22;;;;;;;1.37;0.70;;;;;;;2.70;100.00;97826.51;1720545;83;21094;-71
2022/04/12 04:36:49;;;;;;;7.07;2.20;;;;;;;2.70;100.00;97818.51;1693402;83;21527;-71
2022/04/12 04:39:16;;;;;;;16.07;8.00;;;;;;;2.70;100.00;97832.67;1693361;83;21069;-72
2022/04/12 04:41:43;;;;;;;67.00;28.00;;;;;;;2.68;100.00;97832.53;1719943;83;21018;-70
2022/04/12 04:44:10;;;;;;;72.67;36.43;;;;;;;2.67;100.00;97833.02;1718495;83;21042;-72
2022/04/12 04:46:37;;;;;;;46.80;28.97;;;;;;;2.69;100.00;97840.34;1718985;83;21026;-71
2022/04/12 04:49:05;;;;;;;8.50;5.50;;;;;;;2.71;100.00;97836.16;1722783;83;21045;-72
2022/04/12 04:51:35;;;;;;;23.43;14.13;;;;;;;2.70;100.00;97843.86;1720492;83;21077;-71
2022/04/12 04:54:02;;;;;;;7.83;4.67;;;;;;;2.69;100.00;97843.52;1718203;83;21031;-70
2022/04/12 04:56:29;;;;;;;13.63;6.30;;;;;;;2.65;100.00;97833.19;1714998;83;21239;-71
2022/04/12 04:58:58;;;;;;;10.73;4.97;;;;;;;2.66;100.00;97828.19;1708722;83;21508;-71
2022/04/12 05:01:27;;;;;;;6.60;3.60;;;;;;;2.66;100.00;97825.52;1734776;83;21556;-71
2022/04/12 05:03:55;;;;;;;3.53;2.60;;;;;;;2.63;100.00;97828.53;1722805;83;21026;-71
2022/04/12 05:06:24;;;;;;;6.03;3.70;;;;;;;2.60;100.00;97819.56;1692567;84;21062;-69
2022/04/12 05:08:51;;;;;;;3.20;2.40;;;;;;;2.57;100.00;97828.42;1692550;82;21078;-71
2022/04/12 05:11:19;;;;;;;23.73;5.93;;;;;;;2.55;100.00;97824.59;1703003;83;21007;-71
2022/04/12 05:13:47;;;;;;;3.50;1.83;;;;;;;2.55;100.00;97831.73;1716350;82;21050;-71
2022/04/12 05:16:15;;;;;;;10.90;4.17;;;;;;;2.53;100.00;97838.58;1742881;81;21583;-72
2022/04/12 05:18:43;;;;;;;20.27;7.67;;;;;;;2.53;100.00;97840.42;1773169;81;21499;-72
2022/04/12 05:21:11;;;;;;;5.50;3.10;;;;;;;2.52;100.00;97836.11;1769088;80;21015;-72
2022/04/12 05:23:41;;;;;;;6.77;3.83;;;;;;;2.52;100.00;97832.93;1769395;81;21168;-71
2022/04/12 05:26:08;;;;;;;6.87;4.20;;;;;;;2.51;100.00;97831.25;1771170;81;21030;-70
2022/04/12 05:28:36;;;;;;;8.33;4.37;;;;;;;2.53;100.00;97843.09;1768771;81;21023;-71
2022/04/12 05:31:04;;;;;;;11.23;4.43;;;;;;;2.51;100.00;97849.11;1771139;80;21559;-71
2022/04/12 05:33:32;;;;;;;13.47;5.03;;;;;;;2.51;100.00;97854.44;1768772;81;21000;-71
2022/04/12 05:36:00;;;;;;;10.73;4.57;;;;;;;2.50;100.00;97864.29;1766800;80;21015;-70
2022/04/12 05:38:27;;;;;;;3.07;2.70;;;;;;;2.54;100.00;97868.78;1746698;81;21039;-71
2022/04/12 05:40:55;;;;;;;2.53;1.83;;;;;;;2.55;100.00;97863.27;1771755;80;21050;-71
2022/04/12 05:43:22;;;;;;;22.80;7.50;;;;;;;2.55;100.00;97863.27;1772523;80;21515;-70
2022/04/12 05:45:51;;;;;;;18.10;6.07;;;;;;;2.54;100.00;97874.94;1768475;81;21380;-71
2022/04/12 05:48:18;;;;;;;58.80;22.60;;;;;;;2.57;100.00;97876.44;1746302;80;21606;-70
2022/04/12 05:50:47;;;;;;;2.00;1.30;;;;;;;2.59;100.00;97893.11;1711723;83;21137;-70
2022/04/12 05:53:14;;;;;;;2.90;2.20;;;;;;;2.59;100.00;97891.26;1708456;84;21091;-71
2022/04/12 05:55:41;;;;;;;2.60;2.13;;;;;;;2.58;100.00;97900.26;1683593;84;21344;-69
2022/04/12 05:58:09;;;;;;;6.33;3.73;;;;;;;2.56;100.00;97907.61;1721610;82;21058;-71
2022/04/12 06:00:36;;;;;;;4.27;3.30;;;;;;;2.58;100.00;97903.44;1696681;83;21077;-70
2022/04/12 06:03:03;;;;;;;1.90;1.80;;;;;;;2.59;100.00;97897.11;1686946;84;21611;-70
2022/04/12 06:05:32;;;;;;;1.40;1.30;;;;;;;2.57;100.00;97899.13;1684003;84;21749;-70
2022/04/12 06:07:59;;;;;;;3.73;3.00;;;;;;;2.56;100.00;97902.27;1689350;85;21067;-70
2022/04/12 06:10:27;;;;;;;1.67;1.57;;;;;;;2.55;100.00;97899.29;1695914;83;21011;-71
2022/04/12 06:12:55;;;;;;;1.83;1.57;;;;;;;2.53;100.00;97902.61;1693190;84;21592;-70
2022/04/12 06:15:22;;;;;;;2.53;2.13;;;;;;;2.51;100.00;97912.63;1695474;83;21511;-70
2022/04/12 06:17:51;;;;;;;4.17;2.90;;;;;;;2.49;100.00;97894.62;1673805;85;21071;-70
2022/04/12 06:20:19;;;;;;;4.40;2.90;;;;;;;2.48;100.00;97904.98;1747269;82;21499;-70
2022/04/12 06:22:46;;;;;;;9.97;4.57;;;;;;;2.45;100.00;97914.14;1750593;82;21067;-71
2022/04/12 06:25:15;;;;;;;13.63;4.77;;;;;;;2.43;100.00;97920.16;1749929;82;21530;-71
2022/04/12 06:27:50;;;;;;;9.23;3.90;;;;;;;2.42;100.00;97926.99;1752202;81;21057;-72
2022/04/12 06:30:16;;;;;;;9.40;4.43;;;;;;;2.42;100.00;97933.16;1755089;80;21021;-73
2022/04/12 06:32:45;;;;;;;23.87;9.30;;;;;;;2.43;100.00;97932.67;1751540;81;21021;-71
2022/04/12 06:35:12;;;;;;;12.70;5.90;;;;;;;2.42;100.00;97933.16;1750033;81;20990;-71
2022/04/12 06:37:43;;;;;;;154.90;66.47;;;;;;;2.42;100.00;97939.82;1778939;80;21680;-71
2022/04/12 06:40:12;;;;;;;296.70;104.20;;;;;;;2.43;100.00;97954.84;1751531;82;21014;-71
2022/04/12 06:42:39;;;;;;;10.63;5.47;;;;;;;2.45;100.00;97944.82;1750331;82;21570;-71
2022/04/12 06:45:08;;;;;;;16.27;9.73;;;;;;;2.47;100.00;97948.66;1776043;79;21045;-70
2022/04/12 06:47:36;;;;;;;603.93;218.93;;;;;;;2.49;100.00;97944.49;1744136;81;21022;-70
2022/04/12 06:50:04;;;;;;;33.93;24.17;;;;;;;2.48;100.00;97953.00;1748713;82;21526;-70
2022/04/12 06:52:32;;;;;;;10.57;6.47;;;;;;;2.48;100.00;97958.34;1749514;82;21052;-71
2022/04/12 06:54:59;;;;;;;3.63;3.00;;;;;;;2.46;100.00;97951.84;1781471;80;21005;-71
2022/04/12 06:57:32;;;;;;;5.83;3.13;;;;;;;2.49;100.00;97953.31;1766540;81;21054;-72
2022/04/12 06:59:59;;;;;;;27.15;13.05;;;;;;;2.50;100.00;97958.14;1747205;81;21117;-71
2022/04/12 07:02:27;;;;;;;87.17;33.23;;;;;;;2.50;100.00;97952.33;1682971;84;21110;-73
2022/04/12 07:04:54;;;;;;;65.63;30.90;;;;;;;2.50;100.00;97940.33;1738849;82;21510;-73
2022/04/12 07:07:21;;;;;;;20.13;11.37;;;;;;;2.53;100.00;97945.30;1721508;82;21104;-72
2022/04/12 07:09:50;;;;;;;8.33;4.10;;;;;;;2.57;100.00;97941.30;1716157;82;21141;-72
2022/04/12 07:12:18;;;;;;;3.33;2.73;;;;;;;2.61;100.00;97952.46;1738828;82;21022;-71
2022/04/12 07:14:46;;;;;;;3.17;2.30;;;;;;;2.61;100.00;97945.28;1737069;82;21037;-71
2022/04/12 07:17:14;;;;;;;3.67;2.80;;;;;;;2.63;100.00;97953.94;1721018;82;21026;-72
2022/04/12 07:19:41;;;;;;;7.50;4.13;;;;;;;2.64;100.00;97952.13;1717670;82;21046;-71
2022/04/12 07:22:09;;;;;;;9.97;4.20;;;;;;;2.63;100.00;97951.78;1717723;82;21506;-71
2022/04/12 07:24:37;;;;;;;10.77;3.90;;;;;;;2.62;100.00;97946.95;1736891;82;21010;-72
2022/04/12 07:27:04;;;;;;;5.57;2.93;;;;;;;2.65;100.00;97947.09;1735883;82;21064;-71
2022/04/12 07:29:32;;;;;;;6.93;3.93;;;;;;;2.67;100.00;97947.76;1715979;82;21180;-72
2022/04/12 07:31:59;;;;;;;13.17;5.60;;;;;;;2.70;100.00;97955.42;1715575;82;21088;-72
2022/04/12 07:34:26;;;;;;;13.30;5.07;;;;;;;2.73;100.00;97959.09;1724235;82;21061;-71
2022/04/12 07:36:55;;;;;;;15.87;7.10;;;;;;;2.75;100.00;97971.77;1738186;82;21026;-73
2022/04/12 07:39:22;;;;;;;6.93;3.90;;;;;;;2.75;100.00;97969.09;1745862;81;21526;-71
2022/04/12 08:15:08;;;;;;;3.93;3.00;;;;;;;2.44;100.00;98114.38;1891349;76;22521;-71
2022/04/12 08:17:36;;;;;;;2.33;1.70;;;;;;;2.41;100.00;98071.55;1864966;77;21061;-71
2022/04/12 08:20:08;;;;;;;1.80;1.70;;;;;;;2.47;100.00;98051.36;1834384;77;21046;-70
2022/04/12 08:22:36;;;;;;;2.02;1.75;;;;;;;2.51;100.00;98039.86;1866279;77;21007;-71
2022/04/12 08:25:05;;;;;;;11.93;5.13;;;;;;;2.59;100.00;98037.19;1867262;76;21530;-69
2022/04/12 08:27:34;;;;;;;7.10;3.50;;;;;;;2.70;100.00;98029.33;1796433;78;21021;-70
2022/04/12 08:30:02;;;;;;;2.27;2.07;;;;;;;2.83;100.00;98025.61;1826330;78;21009;-70
2022/04/12 08:32:30;;;;;;;4.57;3.23;;;;;;;2.92;100.00;98012.59;1796078;78;21048;-70
2022/04/12 08:34:58;;;;;;;5.43;3.10;;;;;;;2.98;100.00;98011.89;1826494;78;21037;-70
2022/04/12 08:37:25;;;;;;;4.83;2.50;;;;;;;3.08;100.00;98009.52;1795415;78;21017;-69
2022/04/12 08:39:52;;;;;;;3.00;2.20;;;;;;;3.15;100.00;98014.01;1826896;78;21013;-71
2022/04/12 08:42:21;;;;;;;6.43;3.33;;;;;;;3.19;100.00;98022.50;1800128;78;20982;-69
2022/04/12 08:44:49;;;;;;;8.00;3.63;;;;;;;3.19;100.00;98017.16;1789912;80;21036;-70
2022/04/12 08:49:48;;;;;;;8.07;3.67;;;;;;;3.20;100.00;98034.84;1705972;84;21098;-70
2022/04/12 08:52:15;;;;;;;6.67;3.13;;;;;;;3.21;100.00;98041.86;1710001;83;21578;-70
2022/04/12 08:54:44;;;;;;;4.73;3.30;;;;;;;3.22;100.00;98044.84;1739445;82;21045;-71
2022/04/12 08:58:41;;;;;;;5.93;3.37;;;;;;;3.19;100.00;98051.38;1829853;77;22830;-70
2022/04/12 09:01:10;;;;;;;18.50;9.27;;;;;;;3.18;100.00;98035.00;1754500;79;21044;-71
2022/04/12 09:03:37;;;;;;;11.90;6.10;;;;;;;3.17;100.00;98038.70;1812881;78;21497;-70
2022/04/12 09:06:06;;;;;;;3.33;2.60;;;;;;;3.21;100.00;98040.01;1818697;79;21020;-69
2022/04/12 09:08:35;;;;;;;6.63;3.03;;;;;;;3.22;100.00;98045.69;1817531;78;20957;-71
2022/04/12 09:11:05;;;;;;;8.60;3.60;;;;;;;3.22;100.00;98051.52;1816412;79;21009;-71
2022/04/12 09:13:38;;;;;;;1.90;1.77;;;;;;;3.25;100.00;98054.36;1819306;79;20994;-69
2022/04/12 09:16:08;;;;;;;4.63;2.37;;;;;;;3.31;100.00;98051.84;1818280;79;21520;-71
2022/04/12 09:18:42;;;;;;;2.03;1.70;;;;;;;3.33;100.00;98063.17;1816701;79;21063;-70
2022/04/12 09:21:20;;;;;;;3.70;1.73;;;;;;;3.39;100.00;98065.66;1761412;79;20993;-69
2022/04/12 09:23:50;;;;;;;1.27;1.27;;;;;;;3.40;100.00;98077.51;1814517;79;21020;-69
2022/04/12 09:26:27;;;;;;;1.40;1.30;;;;;;;3.46;100.00;98073.30;1785155;79;20992;-69
2022/04/12 09:29:00;;;;;;;2.97;2.20;;;;;;;3.49;100.00;98070.77;1816532;79;21007;-69
2022/04/12 09:31:27;;;;;;;1.52;1.42;;;;;;;3.51;100.00;98072.79;1810985;79;21050;-70
2022/04/12 09:33:56;;;;;;;1.30;1.30;;;;;;;3.53;100.00;98094.31;1816950;79;21539;-70
2022/04/12 09:36:23;;;;;;;1.67;1.57;;;;;;;3.55;100.00;98094.14;1768705;79;21521;-70
2022/04/12 09:38:58;;;;;;;1.93;1.73;;;;;;;3.59;100.00;98096.30;1784312;80;21078;-69
2022/04/12 09:41:28;;;;;;;1.20;1.10;;;;;;;3.60;100.00;98102.47;1809237;79;20992;-72
2022/04/12 09:44:08;;;;;;;1.93;1.23;;;;;;;3.61;100.00;98100.97;1776558;79;21055;-70
2022/04/12 09:46:36;;;;;;;1.57;1.30;;;;;;;3.63;100.00;98111.97;1812847;79;21032;-70
2022/04/12 09:49:03;;;;;;;4.00;3.20;;;;;;;3.63;100.00;98119.51;1797926;78;20960;-71
2022/04/12 09:51:32;;;;;;;2.10;2.00;;;;;;;3.66;100.00;98134.34;1816654;79;20981;-71
2022/04/12 09:54:00;;;;;;;10.07;4.43;;;;;;;3.67;100.00;98149.39;1786824;79;21035;-69
2022/04/12 09:56:29;;;;;;;6.57;3.50;;;;;;;3.67;100.00;98162.25;1784766;78;21035;-72
2022/04/12 09:58:59;;;;;;;6.23;3.83;;;;;;;3.63;100.00;98167.62;1781113;80;21530;-70
2022/04/12 10:01:27;;;;;;;2.33;2.10;;;;;;;3.61;100.00;98182.48;1763666;81;20962;-70
2022/04/12 10:03:57;;;;;;;3.53;2.30;;;;;;;3.61;100.00;98186.49;1741058;81;20990;-72
2022/04/12 10:06:27;;;;;;;3.10;2.80;;;;;;;3.62;100.00;98194.00;1743245;81;20976;-73
2022/04/12 10:08:59;;;;;;;4.67;2.37;;;;;;;3.60;100.00;98196.84;1755673;81;21788;-72
2022/04/12 10:11:28;;;;;;;2.50;2.00;;;;;;;3.60;100.00;98204.86;1687789;83;20995;-72
2022/04/12 10:13:57;;;;;;;3.53;2.47;;;;;;;3.61;100.00;98215.03;1685457;84;21021;-71
2022/04/12 10:16:25;;;;;;;3.30;2.77;;;;;;;3.65;100.00;98213.71;1716864;83;21093;-72
2022/04/12 10:18:54;;;;;;;7.70;4.53;;;;;;;3.67;100.00;98223.72;1693634;83;21525;-71
2022/04/12 10:21:25;;;;;;;3.57;2.03;;;;;;;3.68;100.00;98232.56;1714990;83;21669;-71
2022/04/12 10:23:56;;;;;;;2.97;2.13;;;;;;;3.64;100.00;98230.73;1691452;83;21009;-71
2022/04/12 10:26:24;;;;;;;1.97;1.40;;;;;;;3.66;100.00;98243.42;1712371;83;21042;-72
2022/04/12 10:28:59;;;;;;;1.67;1.40;;;;;;;3.66;100.00;98251.95;1715190;83;20997;-73
2022/04/12 10:31:30;;;;;;;1.52;1.42;;;;;;;3.67;100.00;98257.13;1629840;86;21030;-71
2022/04/12 10:34:14;;;;;;;1.90;1.30;;;;;;;3.67;100.00;98261.66;1652898;86;21010;-71
2022/04/12 10:37:07;;;;;;;1.43;1.30;;;;;;;3.64;100.00;98272.17;1627606;87;21097;-71
2022/04/12 10:39:48;;;;;;;1.87;1.70;;;;;;;3.60;100.00;98287.71;1656705;86;21018;-71
2022/04/12 10:42:26;;;;;;;1.97;1.80;;;;;;;3.58;100.00;98280.37;1648328;86;21095;-71
2022/04/12 10:47:29;;;;;;;1.83;1.73;;;;;;;3.63;100.00;98291.05;1546612;91;21110;-72
2022/04/12 10:50:12;;;;;;;1.80;1.63;;;;;;;3.64;100.00;98297.56;1542850;91;21046;-72
2022/04/12 10:52:48;;;;;;;1.30;1.20;;;;;;;3.66;100.00;98304.91;1561688;91;21597;-72
2022/04/12 10:57:53;;;;;;;2.13;1.87;;;;;;;3.66;100.00;98314.77;1519661;93;21129;-71
2022/04/12 11:00:21;;;;;;;1.60;1.50;;;;;;;3.58;100.00;98309.77;1524213;93;21066;-71
2022/04/12 11:02:58;;;;;;;2.33;1.90;;;;;;;3.55;100.00;98313.28;1520496;93;21013;-72
2022/04/12 11:05:46;;;;;;;2.53;1.97;;;;;;;3.57;100.00;98320.62;1501101;93;21123;-72
2022/04/12 11:08:19;;;;;;;2.07;1.97;;;;;;;3.54;100.00;98316.47;1495195;95;21569;-72
2022/04/12 11:10:59;;;;;;;2.40;2.17;;;;;;;3.53;100.00;98312.62;1459262;98;21022;-72
2022/04/12 11:13:29;;;;;;;1.80;1.70;;;;;;;3.55;100.00;98314.62;1443724;99;21120;-72
2022/04/12 11:16:03;;;;;;;4.33;2.60;;;;;;;3.61;100.00;98311.25;1442302;98;21164;-72
2022/04/12 11:18:57;;;;;;;5.65;3.15;;;;;;;3.63;100.00;98295.91;1459037;98;21055;-71
2022/04/12 11:21:54;;;;;;;3.98;2.80;;;;;;;3.69;100.00;98304.58;1408874;100;21425;-71
2022/04/12 11:24:22;;;;;;;4.07;2.60;;;;;;;3.73;100.00;98311.75;1423345;100;21051;-71
2022/04/12 11:27:12;;;;;;;4.77;2.40;;;;;;;3.74;100.00;98316.93;1427008;100;21098;-72
2022/04/12 11:29:41;;;;;;;2.07;1.40;;;;;;;3.72;100.00;98340.81;1512759;94;21129;-72
2022/04/12 11:32:10;;;;;;;2.63;2.00;;;;;;;3.69;100.00;98338.50;1497727;94;21133;-71
2022/04/12 11:34:39;;;;;;;2.77;1.80;;;;;;;3.67;100.00;98349.87;1497971;94;21561;-72
2022/04/12 11:37:08;;;;;;;1.60;1.50;;;;;;;3.66;100.00;98345.00;1484957;96;21145;-73
2022/04/12 11:39:43;;;;;;;2.17;1.57;;;;;;;3.69;100.00;98342.51;1475861;96;21135;-72
2022/04/12 11:42:15;;;;;;;7.67;3.83;;;;;;;3.67;100.00;98355.21;1511440;94;21218;-72
2022/04/12 11:44:51;;;;;;;6.70;3.60;;;;;;;3.63;100.00;98350.70;1568392;89;21052;-73
2022/04/12 11:47:20;;;;;;;3.03;2.00;;;;;;;3.67;100.00;98353.88;1583467;89;21101;-71
2022/04/12 11:49:49;;;;;;;3.07;1.90;;;;;;;3.73;100.00;98363.37;1610449;89;21057;-71
2022/04/12 11:52:16;;;;;;;1.67;1.57;;;;;;;3.79;100.00;98370.73;1610210;89;21014;-73
2022/04/12 11:54:46;;;;;;;2.07;1.97;;;;;;;3.82;100.00;98378.08;1650266;84;21388;-72
2022/04/12 11:57:19;;;;;;;1.73;1.63;;;;;;;3.82;100.00;98373.55;1680129;85;21069;-72
2022/04/12 11:59:54;;;;;;;1.73;1.50;;;;;;;3.82;100.00;98378.08;1719911;82;21062;-71
2022/04/12 12:02:26;;;;;;;1.73;1.60;;;;;;;3.78;100.00;98378.41;1715740;82;21025;-71
2022/04/12 12:04:58;;;;;;;2.03;1.70;;;;;;;3.75;100.00;98380.58;1636402;86;21054;-71
2022/04/12 12:07:26;;;;;;;2.53;2.00;;;;;;;3.70;100.00;98386.94;1635423;86;21129;-71
2022/04/12 12:10:14;;;;;;;4.07;2.20;;;;;;;3.68;100.00;98394.28;1634392;88;20999;-71
2022/04/12 12:12:46;;;;;;;5.40;2.50;;;;;;;3.70;100.00;98401.16;1634891;88;21078;-73
2022/04/12 12:15:25;;;;;;;2.33;2.13;;;;;;;3.75;100.00;98402.83;1613613;88;21077;-72
2022/04/12 12:18:06;;;;;;;1.70;1.60;;;;;;;3.78;100.00;98403.80;1634136;88;21023;-71
2022/04/12 12:20:35;;;;;;;2.33;2.13;;;;;;;3.77;100.00;98409.31;1634605;87;21062;-71
2022/04/12 12:23:07;;;;;;;1.80;1.70;;;;;;;3.77;100.00;98402.63;1595821;89;21092;-71
2022/04/12 12:25:50;;;;;;;2.60;1.87;;;;;;;3.74;100.00;98422.53;1600374;89;21083;-72
2022/04/12 12:28:19;;;;;;;20.00;8.07;;;;;;;3.74;100.00;98417.70;1615885;89;21124;-71